sensor_id;sensor_type;location;lat;lon;timestamp;P1;durP1;ratioP1;P2;durP2;ratioP2
6791;SDS011;3433;48.730;9.108;2023-02-14T00:02:22;25.50;;;12.90;;
6791;SDS011;3433;48.730;9.108;2023-02-14T00:05:10;24.40;;;13.80;;
6791;SDS011;3433;48.730;9.108;2023-02-14T00:07:58;25.83;;;14.10;;
6791;SDS011;3433;48.730;9.108;2023-02-14T00:10:45;23.50;;;13.73;;
6791;SDS011;3433;48.730;9.108;2023-02-14T00:13:33;28.47;;;13.93;;
6791;SDS011;3433;48.730;9.108;2023-02-14T00:16:20;27.83;;;14.87;;
6791;SDS011;3433;48.730;9.108;2023-02-14T00:19:06;24.33;;;13.93;;
6791;SDS011;3433;48.730;9.108;2023-02-14T00:21:54;26.77;;;14.50;;
6791;SDS011;3433;48.730;9.108;2023-02-14T00:24:43;25.30;;;13.87;;
6791;SDS011;3433;48.730;9.108;2023-02-14T00:27:30;20.70;;;12.73;;
6791;SDS011;3433;48.730;9.108;2023-02-14T00:30:17;24.00;;;13.03;;
6791;SDS011;3433;48.730;9.108;2023-02-14T00:33:04;24.17;;;12.13;;
6791;SDS011;3433;48.730;9.108;2023-02-14T00:35:51;23.53;;;12.57;;
6791;SDS011;3433;48.730;9.108;2023-02-14T00:38:39;22.30;;;13.10;;
6791;SDS011;3433;48.730;9.108;2023-02-14T00:41:27;24.97;;;12.50;;
6791;SDS011;3433;48.730;9.108;2023-02-14T00:44:14;22.63;;;13.07;;
6791;SDS011;3433;48.730;9.108;2023-02-14T00:47:02;23.20;;;12.87;;
6791;SDS011;3433;48.730;9.108;2023-02-14T00:49:49;25.13;;;12.97;;
6791;SDS011;3433;48.730;9.108;2023-02-14T00:52:36;21.10;;;11.90;;
6791;SDS011;3433;48.730;9.108;2023-02-14T00:55:23;27.00;;;14.63;;
6791;SDS011;3433;48.730;9.108;2023-02-14T00:58:12;21.73;;;12.97;;
6791;SDS011;3433;48.730;9.108;2023-02-14T01:00:59;20.70;;;13.20;;
6791;SDS011;3433;48.730;9.108;2023-02-14T01:03:46;24.60;;;13.53;;
6791;SDS011;3433;48.730;9.108;2023-02-14T01:06:34;23.60;;;12.83;;
6791;SDS011;3433;48.730;9.108;2023-02-14T01:09:21;27.43;;;13.20;;
6791;SDS011;3433;48.730;9.108;2023-02-14T01:12:08;24.70;;;13.77;;
6791;SDS011;3433;48.730;9.108;2023-02-14T01:14:57;26.60;;;13.37;;
6791;SDS011;3433;48.730;9.108;2023-02-14T01:17:44;22.67;;;13.07;;
6791;SDS011;3433;48.730;9.108;2023-02-14T01:20:31;25.90;;;13.60;;
6791;SDS011;3433;48.730;9.108;2023-02-14T01:23:19;22.50;;;12.10;;
6791;SDS011;3433;48.730;9.108;2023-02-14T01:26:06;27.00;;;12.60;;
6791;SDS011;3433;48.730;9.108;2023-02-14T01:28:54;23.03;;;12.47;;
6791;SDS011;3433;48.730;9.108;2023-02-14T01:31:44;23.20;;;12.93;;
6791;SDS011;3433;48.730;9.108;2023-02-14T01:34:32;24.17;;;14.30;;
6791;SDS011;3433;48.730;9.108;2023-02-14T01:37:19;22.47;;;13.07;;
6791;SDS011;3433;48.730;9.108;2023-02-14T01:40:09;20.27;;;11.53;;
6791;SDS011;3433;48.730;9.108;2023-02-14T01:42:57;22.10;;;12.77;;
6791;SDS011;3433;48.730;9.108;2023-02-14T01:45:44;25.27;;;12.23;;
6791;SDS011;3433;48.730;9.108;2023-02-14T01:48:33;21.27;;;12.20;;
6791;SDS011;3433;48.730;9.108;2023-02-14T01:51:20;22.40;;;12.70;;
6791;SDS011;3433;48.730;9.108;2023-02-14T01:54:08;21.40;;;11.33;;
6791;SDS011;3433;48.730;9.108;2023-02-14T01:56:57;19.13;;;11.60;;
6791;SDS011;3433;48.730;9.108;2023-02-14T01:59:48;24.60;;;12.57;;
6791;SDS011;3433;48.730;9.108;2023-02-14T02:02:38;21.53;;;12.50;;
6791;SDS011;3433;48.730;9.108;2023-02-14T02:05:27;21.93;;;13.80;;
6791;SDS011;3433;48.730;9.108;2023-02-14T02:08:14;25.10;;;12.40;;
6791;SDS011;3433;48.730;9.108;2023-02-14T02:11:01;19.13;;;11.10;;
6791;SDS011;3433;48.730;9.108;2023-02-14T02:13:49;21.47;;;11.50;;
6791;SDS011;3433;48.730;9.108;2023-02-14T02:16:48;19.50;;;11.80;;
6791;SDS011;3433;48.730;9.108;2023-02-14T02:37:18;19.07;;;11.23;;
6791;SDS011;3433;48.730;9.108;2023-02-14T02:40:21;18.40;;;10.13;;
6791;SDS011;3433;48.730;9.108;2023-02-14T02:43:27;22.43;;;11.70;;
6791;SDS011;3433;48.730;9.108;2023-02-14T02:46:24;19.40;;;10.70;;
6791;SDS011;3433;48.730;9.108;2023-02-14T02:49:37;18.87;;;10.70;;
6791;SDS011;3433;48.730;9.108;2023-02-14T02:52:51;20.70;;;11.53;;
6791;SDS011;3433;48.730;9.108;2023-02-14T02:55:51;21.83;;;11.47;;
6791;SDS011;3433;48.730;9.108;2023-02-14T02:59:01;19.57;;;10.90;;
6791;SDS011;3433;48.730;9.108;2023-02-14T03:01:53;19.93;;;10.90;;
6791;SDS011;3433;48.730;9.108;2023-02-14T03:04:47;18.77;;;11.57;;
6791;SDS011;3433;48.730;9.108;2023-02-14T03:07:38;22.47;;;11.50;;
6791;SDS011;3433;48.730;9.108;2023-02-14T03:10:28;24.37;;;12.73;;
6791;SDS011;3433;48.730;9.108;2023-02-14T03:13:35;19.40;;;11.40;;
6791;SDS011;3433;48.730;9.108;2023-02-14T03:16:37;20.63;;;12.50;;
6791;SDS011;3433;48.730;9.108;2023-02-14T03:19:38;20.03;;;11.00;;
6791;SDS011;3433;48.730;9.108;2023-02-14T03:22:50;18.70;;;10.80;;
6791;SDS011;3433;48.730;9.108;2023-02-14T03:25:45;21.77;;;11.40;;
6791;SDS011;3433;48.730;9.108;2023-02-14T03:28:42;20.60;;;11.60;;
6791;SDS011;3433;48.730;9.108;2023-02-14T03:31:34;19.37;;;11.83;;
6791;SDS011;3433;48.730;9.108;2023-02-14T03:34:31;22.87;;;13.10;;
6791;SDS011;3433;48.730;9.108;2023-02-14T03:37:25;21.73;;;11.67;;
6791;SDS011;3433;48.730;9.108;2023-02-14T03:40:19;20.33;;;11.63;;
6791;SDS011;3433;48.730;9.108;2023-02-14T03:43:11;19.17;;;12.17;;
6791;SDS011;3433;48.730;9.108;2023-02-14T03:46:04;20.10;;;11.00;;
6791;SDS011;3433;48.730;9.108;2023-02-14T03:48:54;19.90;;;11.70;;
6791;SDS011;3433;48.730;9.108;2023-02-14T03:51:44;21.63;;;12.60;;
6791;SDS011;3433;48.730;9.108;2023-02-14T03:54:34;21.10;;;11.70;;
6791;SDS011;3433;48.730;9.108;2023-02-14T03:57:22;21.37;;;12.10;;
6791;SDS011;3433;48.730;9.108;2023-02-14T04:00:14;19.27;;;11.43;;
6791;SDS011;3433;48.730;9.108;2023-02-14T04:03:03;21.50;;;11.70;;
6791;SDS011;3433;48.730;9.108;2023-02-14T04:05:56;24.13;;;11.90;;
6791;SDS011;3433;48.730;9.108;2023-02-14T04:08:44;21.93;;;13.43;;
6791;SDS011;3433;48.730;9.108;2023-02-14T04:11:31;24.33;;;12.70;;
6791;SDS011;3433;48.730;9.108;2023-02-14T04:14:20;22.23;;;11.53;;
6791;SDS011;3433;48.730;9.108;2023-02-14T04:17:08;20.83;;;11.33;;
6791;SDS011;3433;48.730;9.108;2023-02-14T04:20:13;22.73;;;12.53;;
6791;SDS011;3433;48.730;9.108;2023-02-14T04:23:00;26.50;;;13.87;;
6791;SDS011;3433;48.730;9.108;2023-02-14T04:25:47;25.87;;;13.83;;
6791;SDS011;3433;48.730;9.108;2023-02-14T04:28:34;28.07;;;14.23;;
6791;SDS011;3433;48.730;9.108;2023-02-14T04:31:21;24.03;;;13.27;;
6791;SDS011;3433;48.730;9.108;2023-02-14T04:34:10;27.17;;;13.47;;
6791;SDS011;3433;48.730;9.108;2023-02-14T04:36:57;27.57;;;13.83;;
6791;SDS011;3433;48.730;9.108;2023-02-14T04:39:44;25.53;;;13.17;;
6791;SDS011;3433;48.730;9.108;2023-02-14T04:42:31;25.27;;;11.80;;
6791;SDS011;3433;48.730;9.108;2023-02-14T04:45:19;27.03;;;13.40;;
6791;SDS011;3433;48.730;9.108;2023-02-14T04:48:06;26.47;;;12.60;;
6791;SDS011;3433;48.730;9.108;2023-02-14T04:50:54;28.67;;;13.60;;
6791;SDS011;3433;48.730;9.108;2023-02-14T04:53:42;22.90;;;12.90;;
6791;SDS011;3433;48.730;9.108;2023-02-14T04:56:29;23.50;;;11.70;;
6791;SDS011;3433;48.730;9.108;2023-02-14T04:59:16;24.97;;;12.43;;
6791;SDS011;3433;48.730;9.108;2023-02-14T05:02:03;22.50;;;12.17;;
6791;SDS011;3433;48.730;9.108;2023-02-14T05:04:51;20.00;;;10.73;;
6791;SDS011;3433;48.730;9.108;2023-02-14T05:07:39;20.27;;;12.50;;
6791;SDS011;3433;48.730;9.108;2023-02-14T05:10:26;26.67;;;14.00;;
6791;SDS011;3433;48.730;9.108;2023-02-14T05:13:14;27.23;;;15.33;;
6791;SDS011;3433;48.730;9.108;2023-02-14T05:16:02;26.90;;;14.87;;
6791;SDS011;3433;48.730;9.108;2023-02-14T05:18:50;29.70;;;15.17;;
6791;SDS011;3433;48.730;9.108;2023-02-14T05:21:37;33.30;;;16.40;;
6791;SDS011;3433;48.730;9.108;2023-02-14T05:24:26;30.93;;;15.77;;
6791;SDS011;3433;48.730;9.108;2023-02-14T05:27:13;24.53;;;14.30;;
6791;SDS011;3433;48.730;9.108;2023-02-14T05:30:01;28.43;;;13.27;;
6791;SDS011;3433;48.730;9.108;2023-02-14T05:32:48;25.60;;;12.00;;
6791;SDS011;3433;48.730;9.108;2023-02-14T05:35:35;22.67;;;12.70;;
6791;SDS011;3433;48.730;9.108;2023-02-14T05:38:22;23.10;;;13.13;;
6791;SDS011;3433;48.730;9.108;2023-02-14T05:41:11;23.53;;;11.87;;
6791;SDS011;3433;48.730;9.108;2023-02-14T05:43:58;21.70;;;10.90;;
6791;SDS011;3433;48.730;9.108;2023-02-14T05:46:45;24.87;;;14.10;;
6791;SDS011;3433;48.730;9.108;2023-02-14T05:49:33;22.20;;;12.00;;
6791;SDS011;3433;48.730;9.108;2023-02-14T05:52:20;25.03;;;11.83;;
6791;SDS011;3433;48.730;9.108;2023-02-14T05:55:08;19.47;;;11.07;;
6791;SDS011;3433;48.730;9.108;2023-02-14T05:57:57;23.03;;;12.10;;
6791;SDS011;3433;48.730;9.108;2023-02-14T06:00:44;23.33;;;13.10;;
6791;SDS011;3433;48.730;9.108;2023-02-14T06:03:31;22.67;;;11.90;;
6791;SDS011;3433;48.730;9.108;2023-02-14T06:06:19;29.40;;;11.60;;
6791;SDS011;3433;48.730;9.108;2023-02-14T06:09:06;55.17;;;15.37;;
6791;SDS011;3433;48.730;9.108;2023-02-14T06:11:53;32.43;;;13.83;;
6791;SDS011;3433;48.730;9.108;2023-02-14T06:14:41;30.00;;;12.70;;
6791;SDS011;3433;48.730;9.108;2023-02-14T06:17:29;27.97;;;13.90;;
6791;SDS011;3433;48.730;9.108;2023-02-14T06:20:16;36.60;;;15.10;;
6791;SDS011;3433;48.730;9.108;2023-02-14T06:23:04;27.83;;;14.33;;
6791;SDS011;3433;48.730;9.108;2023-02-14T06:25:51;37.00;;;13.97;;
6791;SDS011;3433;48.730;9.108;2023-02-14T06:28:38;39.47;;;13.63;;
6791;SDS011;3433;48.730;9.108;2023-02-14T06:31:28;27.60;;;13.83;;
6791;SDS011;3433;48.730;9.108;2023-02-14T06:34:15;23.40;;;12.80;;
6791;SDS011;3433;48.730;9.108;2023-02-14T06:37:03;30.00;;;14.27;;
6791;SDS011;3433;48.730;9.108;2023-02-14T06:39:50;26.70;;;13.47;;
6791;SDS011;3433;48.730;9.108;2023-02-14T06:42:37;26.23;;;13.17;;
6791;SDS011;3433;48.730;9.108;2023-02-14T06:45:24;23.87;;;12.57;;
6791;SDS011;3433;48.730;9.108;2023-02-14T06:48:13;25.90;;;13.13;;
6791;SDS011;3433;48.730;9.108;2023-02-14T06:51:00;25.03;;;12.77;;
6791;SDS011;3433;48.730;9.108;2023-02-14T06:53:47;41.43;;;16.83;;
6791;SDS011;3433;48.730;9.108;2023-02-14T06:56:34;29.73;;;14.90;;
6791;SDS011;3433;48.730;9.108;2023-02-14T06:59:22;30.43;;;13.60;;
6791;SDS011;3433;48.730;9.108;2023-02-14T07:02:09;27.83;;;14.63;;
6791;SDS011;3433;48.730;9.108;2023-02-14T07:05:03;30.60;;;14.40;;
6791;SDS011;3433;48.730;9.108;2023-02-14T07:07:51;32.33;;;16.10;;
6791;SDS011;3433;48.730;9.108;2023-02-14T07:10:38;35.07;;;15.97;;
6791;SDS011;3433;48.730;9.108;2023-02-14T07:13:26;34.70;;;15.63;;
6791;SDS011;3433;48.730;9.108;2023-02-14T07:16:13;39.00;;;17.73;;
6791;SDS011;3433;48.730;9.108;2023-02-14T07:19:00;38.50;;;18.27;;
6791;SDS011;3433;48.730;9.108;2023-02-14T07:21:49;63.83;;;20.13;;
6791;SDS011;3433;48.730;9.108;2023-02-14T07:24:37;31.60;;;14.23;;
6791;SDS011;3433;48.730;9.108;2023-02-14T07:27:24;26.70;;;13.70;;
6791;SDS011;3433;48.730;9.108;2023-02-14T07:30:15;34.17;;;14.27;;
6791;SDS011;3433;48.730;9.108;2023-02-14T07:33:02;31.43;;;14.63;;
6791;SDS011;3433;48.730;9.108;2023-02-14T07:35:50;37.17;;;16.33;;
6791;SDS011;3433;48.730;9.108;2023-02-14T07:38:39;37.17;;;15.73;;
6791;SDS011;3433;48.730;9.108;2023-02-14T07:41:27;38.33;;;16.70;;
6791;SDS011;3433;48.730;9.108;2023-02-14T07:44:14;38.60;;;16.10;;
6791;SDS011;3433;48.730;9.108;2023-02-14T07:47:02;31.33;;;17.33;;
6791;SDS011;3433;48.730;9.108;2023-02-14T07:49:49;35.03;;;17.37;;
6791;SDS011;3433;48.730;9.108;2023-02-14T07:52:37;40.80;;;17.73;;
6791;SDS011;3433;48.730;9.108;2023-02-14T07:55:26;33.40;;;16.43;;
6791;SDS011;3433;48.730;9.108;2023-02-14T07:58:13;30.27;;;15.27;;
6791;SDS011;3433;48.730;9.108;2023-02-14T08:01:00;38.10;;;18.10;;
6791;SDS011;3433;48.730;9.108;2023-02-14T08:03:48;30.77;;;16.83;;
6791;SDS011;3433;48.730;9.108;2023-02-14T08:06:35;32.50;;;16.53;;
6791;SDS011;3433;48.730;9.108;2023-02-14T08:09:23;29.80;;;16.07;;
6791;SDS011;3433;48.730;9.108;2023-02-14T08:12:12;31.70;;;15.87;;
6791;SDS011;3433;48.730;9.108;2023-02-14T08:15:16;31.83;;;14.30;;
6791;SDS011;3433;48.730;9.108;2023-02-14T08:18:21;30.77;;;15.83;;
6791;SDS011;3433;48.730;9.108;2023-02-14T08:21:09;24.83;;;14.17;;
6791;SDS011;3433;48.730;9.108;2023-02-14T08:23:56;29.70;;;15.10;;
6791;SDS011;3433;48.730;9.108;2023-02-14T08:26:44;28.90;;;15.97;;
6791;SDS011;3433;48.730;9.108;2023-02-14T08:33:04;29.27;;;15.23;;
6791;SDS011;3433;48.730;9.108;2023-02-14T08:35:52;27.67;;;14.63;;
6791;SDS011;3433;48.730;9.108;2023-02-14T08:38:39;31.50;;;17.00;;
6791;SDS011;3433;48.730;9.108;2023-02-14T08:41:28;30.67;;;16.73;;
6791;SDS011;3433;48.730;9.108;2023-02-14T08:44:15;28.30;;;16.30;;
6791;SDS011;3433;48.730;9.108;2023-02-14T08:47:02;28.40;;;15.33;;
6791;SDS011;3433;48.730;9.108;2023-02-14T08:49:51;26.43;;;15.43;;
6791;SDS011;3433;48.730;9.108;2023-02-14T08:52:38;25.47;;;15.50;;
6791;SDS011;3433;48.730;9.108;2023-02-14T08:55:28;31.77;;;16.07;;
6791;SDS011;3433;48.730;9.108;2023-02-14T08:58:15;30.43;;;17.23;;
6791;SDS011;3433;48.730;9.108;2023-02-14T09:01:06;26.33;;;14.90;;
6791;SDS011;3433;48.730;9.108;2023-02-14T09:03:54;30.10;;;16.90;;
6791;SDS011;3433;48.730;9.108;2023-02-14T09:06:44;28.23;;;16.37;;
6791;SDS011;3433;48.730;9.108;2023-02-14T09:09:31;27.70;;;16.13;;
6791;SDS011;3433;48.730;9.108;2023-02-14T09:12:19;29.33;;;16.30;;
6791;SDS011;3433;48.730;9.108;2023-02-14T09:15:07;27.17;;;16.33;;
6791;SDS011;3433;48.730;9.108;2023-02-14T09:17:55;28.93;;;16.03;;
6791;SDS011;3433;48.730;9.108;2023-02-14T09:20:43;31.90;;;16.63;;
6791;SDS011;3433;48.730;9.108;2023-02-14T09:23:32;29.73;;;16.67;;
6791;SDS011;3433;48.730;9.108;2023-02-14T09:26:19;28.63;;;16.03;;
6791;SDS011;3433;48.730;9.108;2023-02-14T09:29:07;29.20;;;17.00;;
6791;SDS011;3433;48.730;9.108;2023-02-14T09:31:58;30.50;;;18.13;;
6791;SDS011;3433;48.730;9.108;2023-02-14T09:34:46;28.10;;;17.67;;
6791;SDS011;3433;48.730;9.108;2023-02-14T09:37:35;27.23;;;15.77;;
6791;SDS011;3433;48.730;9.108;2023-02-14T09:40:41;28.63;;;16.60;;
6791;SDS011;3433;48.730;9.108;2023-02-14T09:43:29;30.37;;;15.77;;
6791;SDS011;3433;48.730;9.108;2023-02-14T09:46:30;35.80;;;18.37;;
6791;SDS011;3433;48.730;9.108;2023-02-14T09:49:28;27.60;;;16.00;;
6791;SDS011;3433;48.730;9.108;2023-02-14T09:52:20;28.50;;;16.63;;
6791;SDS011;3433;48.730;9.108;2023-02-14T09:55:13;23.30;;;15.47;;
6791;SDS011;3433;48.730;9.108;2023-02-14T09:58:06;29.57;;;17.43;;
6791;SDS011;3433;48.730;9.108;2023-02-14T10:01:01;26.50;;;16.37;;
6791;SDS011;3433;48.730;9.108;2023-02-14T10:03:56;27.53;;;16.60;;
6791;SDS011;3433;48.730;9.108;2023-02-14T10:07:04;24.73;;;15.47;;
6791;SDS011;3433;48.730;9.108;2023-02-14T10:09:59;24.47;;;16.27;;
6791;SDS011;3433;48.730;9.108;2023-02-14T10:12:54;26.83;;;16.07;;
6791;SDS011;3433;48.730;9.108;2023-02-14T10:16:07;28.00;;;15.40;;
6791;SDS011;3433;48.730;9.108;2023-02-14T10:18:59;23.17;;;15.90;;
6791;SDS011;3433;48.730;9.108;2023-02-14T10:21:49;25.27;;;14.63;;
6791;SDS011;3433;48.730;9.108;2023-02-14T10:24:46;23.57;;;14.43;;
6791;SDS011;3433;48.730;9.108;2023-02-14T10:27:54;21.90;;;13.90;;
6791;SDS011;3433;48.730;9.108;2023-02-14T10:30:48;22.53;;;13.93;;
6791;SDS011;3433;48.730;9.108;2023-02-14T10:33:51;20.53;;;14.10;;
6791;SDS011;3433;48.730;9.108;2023-02-14T10:37:07;20.30;;;14.13;;
6791;SDS011;3433;48.730;9.108;2023-02-14T10:43:23;23.30;;;14.07;;
6791;SDS011;3433;48.730;9.108;2023-02-14T10:46:23;31.30;;;15.20;;
6791;SDS011;3433;48.730;9.108;2023-02-14T10:49:24;20.53;;;14.67;;
6791;SDS011;3433;48.730;9.108;2023-02-14T10:52:28;20.50;;;13.40;;
6791;SDS011;3433;48.730;9.108;2023-02-14T10:59:34;20.57;;;14.37;;
6791;SDS011;3433;48.730;9.108;2023-02-14T11:02:46;19.50;;;13.10;;
6791;SDS011;3433;48.730;9.108;2023-02-14T11:05:40;22.37;;;14.57;;
6791;SDS011;3433;48.730;9.108;2023-02-14T11:08:30;20.67;;;13.77;;
6791;SDS011;3433;48.730;9.108;2023-02-14T11:11:23;18.57;;;13.60;;
6791;SDS011;3433;48.730;9.108;2023-02-14T11:14:29;22.00;;;14.77;;
6791;SDS011;3433;48.730;9.108;2023-02-14T11:17:27;21.23;;;14.17;;
6791;SDS011;3433;48.730;9.108;2023-02-14T11:20:21;20.63;;;14.27;;
6791;SDS011;3433;48.730;9.108;2023-02-14T11:23:20;17.60;;;13.10;;
6791;SDS011;3433;48.730;9.108;2023-02-14T11:26:19;25.80;;;14.20;;
6791;SDS011;3433;48.730;9.108;2023-02-14T11:29:09;20.60;;;14.47;;
6791;SDS011;3433;48.730;9.108;2023-02-14T11:32:05;22.27;;;14.27;;
6791;SDS011;3433;48.730;9.108;2023-02-14T11:34:55;19.20;;;13.33;;
6791;SDS011;3433;48.730;9.108;2023-02-14T11:37:48;19.80;;;12.63;;
6791;SDS011;3433;48.730;9.108;2023-02-14T11:40:39;19.50;;;12.90;;
6791;SDS011;3433;48.730;9.108;2023-02-14T11:43:31;21.53;;;13.43;;
6791;SDS011;3433;48.730;9.108;2023-02-14T11:46:24;19.73;;;12.53;;
6791;SDS011;3433;48.730;9.108;2023-02-14T11:49:21;21.20;;;13.93;;
6791;SDS011;3433;48.730;9.108;2023-02-14T11:52:14;18.50;;;13.17;;
6791;SDS011;3433;48.730;9.108;2023-02-14T11:55:04;18.00;;;13.00;;
6791;SDS011;3433;48.730;9.108;2023-02-14T11:57:53;19.80;;;13.17;;
6791;SDS011;3433;48.730;9.108;2023-02-14T12:00:49;20.83;;;14.33;;
6791;SDS011;3433;48.730;9.108;2023-02-14T12:03:38;18.50;;;12.40;;
6791;SDS011;3433;48.730;9.108;2023-02-14T12:06:30;16.30;;;13.20;;
6791;SDS011;3433;48.730;9.108;2023-02-14T12:09:24;19.00;;;12.60;;
6791;SDS011;3433;48.730;9.108;2023-02-14T12:12:15;17.50;;;11.80;;
6791;SDS011;3433;48.730;9.108;2023-02-14T12:15:20;17.07;;;12.80;;
6791;SDS011;3433;48.730;9.108;2023-02-14T12:21:35;18.73;;;13.10;;
6791;SDS011;3433;48.730;9.108;2023-02-14T12:24:28;23.47;;;12.40;;
6791;SDS011;3433;48.730;9.108;2023-02-14T12:27:20;18.30;;;12.90;;
6791;SDS011;3433;48.730;9.108;2023-02-14T12:30:13;17.23;;;12.90;;
6791;SDS011;3433;48.730;9.108;2023-02-14T12:33:02;21.30;;;13.60;;
6791;SDS011;3433;48.730;9.108;2023-02-14T12:36:01;18.90;;;13.37;;
6791;SDS011;3433;48.730;9.108;2023-02-14T12:38:58;19.03;;;14.90;;
6791;SDS011;3433;48.730;9.108;2023-02-14T12:41:57;16.50;;;12.77;;
6791;SDS011;3433;48.730;9.108;2023-02-14T12:44:57;22.57;;;14.53;;
6791;SDS011;3433;48.730;9.108;2023-02-14T12:47:56;18.60;;;13.93;;
6791;SDS011;3433;48.730;9.108;2023-02-14T12:50:54;18.10;;;13.03;;
6791;SDS011;3433;48.730;9.108;2023-02-14T12:53:58;17.97;;;14.30;;
6791;SDS011;3433;48.730;9.108;2023-02-14T12:56:53;20.07;;;14.13;;
6791;SDS011;3433;48.730;9.108;2023-02-14T12:59:50;21.40;;;14.90;;
6791;SDS011;3433;48.730;9.108;2023-02-14T13:06:07;18.83;;;14.77;;
6791;SDS011;3433;48.730;9.108;2023-02-14T13:09:03;24.67;;;17.23;;
6791;SDS011;3433;48.730;9.108;2023-02-14T13:12:02;24.90;;;17.30;;
6791;SDS011;3433;48.730;9.108;2023-02-14T13:15:10;21.73;;;16.07;;
6791;SDS011;3433;48.730;9.108;2023-02-14T13:18:05;21.70;;;15.50;;
6791;SDS011;3433;48.730;9.108;2023-02-14T13:20:59;20.73;;;16.00;;
6791;SDS011;3433;48.730;9.108;2023-02-14T13:23:48;29.73;;;16.30;;
6791;SDS011;3433;48.730;9.108;2023-02-14T13:26:41;26.43;;;14.73;;
6791;SDS011;3433;48.730;9.108;2023-02-14T13:29:31;25.03;;;15.93;;
6791;SDS011;3433;48.730;9.108;2023-02-14T13:32:27;22.07;;;15.77;;
6791;SDS011;3433;48.730;9.108;2023-02-14T13:35:19;22.07;;;15.90;;
6791;SDS011;3433;48.730;9.108;2023-02-14T13:38:10;24.17;;;15.50;;
6791;SDS011;3433;48.730;9.108;2023-02-14T13:41:00;20.80;;;15.47;;
6791;SDS011;3433;48.730;9.108;2023-02-14T13:43:52;24.10;;;16.30;;
6791;SDS011;3433;48.730;9.108;2023-02-14T13:46:44;20.10;;;15.13;;
6791;SDS011;3433;48.730;9.108;2023-02-14T13:49:34;22.97;;;14.90;;
6791;SDS011;3433;48.730;9.108;2023-02-14T13:52:41;18.90;;;14.63;;
6791;SDS011;3433;48.730;9.108;2023-02-14T13:55:45;23.50;;;15.37;;
6791;SDS011;3433;48.730;9.108;2023-02-14T13:58:44;24.37;;;14.70;;
6791;SDS011;3433;48.730;9.108;2023-02-14T14:01:35;19.83;;;14.77;;
6791;SDS011;3433;48.730;9.108;2023-02-14T14:04:34;22.87;;;16.47;;
6791;SDS011;3433;48.730;9.108;2023-02-14T14:07:23;25.10;;;16.30;;
6791;SDS011;3433;48.730;9.108;2023-02-14T14:10:14;24.43;;;16.47;;
6791;SDS011;3433;48.730;9.108;2023-02-14T14:13:52;22.70;;;14.50;;
6791;SDS011;3433;48.730;9.108;2023-02-14T14:16:42;22.27;;;16.40;;
6791;SDS011;3433;48.730;9.108;2023-02-14T14:19:43;22.50;;;15.87;;
6791;SDS011;3433;48.730;9.108;2023-02-14T14:22:31;25.30;;;17.03;;
6791;SDS011;3433;48.730;9.108;2023-02-14T14:25:32;21.23;;;15.30;;
6791;SDS011;3433;48.730;9.108;2023-02-14T14:28:23;25.27;;;16.40;;
6791;SDS011;3433;48.730;9.108;2023-02-14T14:31:12;22.20;;;15.77;;
6791;SDS011;3433;48.730;9.108;2023-02-14T14:34:00;26.80;;;16.23;;
6791;SDS011;3433;48.730;9.108;2023-02-14T14:36:48;24.93;;;17.27;;
6791;SDS011;3433;48.730;9.108;2023-02-14T14:39:35;25.07;;;17.70;;
6791;SDS011;3433;48.730;9.108;2023-02-14T14:42:25;23.27;;;16.30;;
6791;SDS011;3433;48.730;9.108;2023-02-14T14:45:18;26.80;;;18.70;;
6791;SDS011;3433;48.730;9.108;2023-02-14T14:48:09;29.97;;;17.70;;
6791;SDS011;3433;48.730;9.108;2023-02-14T14:51:00;23.73;;;17.20;;
6791;SDS011;3433;48.730;9.108;2023-02-14T14:53:50;24.17;;;16.90;;
6791;SDS011;3433;48.730;9.108;2023-02-14T14:56:43;23.90;;;17.13;;
6791;SDS011;3433;48.730;9.108;2023-02-14T14:59:34;24.17;;;16.50;;
6791;SDS011;3433;48.730;9.108;2023-02-14T15:02:25;27.37;;;18.07;;
6791;SDS011;3433;48.730;9.108;2023-02-14T15:05:18;21.90;;;16.67;;
6791;SDS011;3433;48.730;9.108;2023-02-14T15:08:20;24.53;;;17.37;;
6791;SDS011;3433;48.730;9.108;2023-02-14T15:11:17;27.87;;;18.03;;
6791;SDS011;3433;48.730;9.108;2023-02-14T15:14:22;27.23;;;17.90;;
6791;SDS011;3433;48.730;9.108;2023-02-14T15:17:13;42.03;;;18.43;;
6791;SDS011;3433;48.730;9.108;2023-02-14T15:20:05;23.20;;;16.53;;
6791;SDS011;3433;48.730;9.108;2023-02-14T15:22:54;26.27;;;17.23;;
6791;SDS011;3433;48.730;9.108;2023-02-14T15:25:43;32.00;;;19.27;;
6791;SDS011;3433;48.730;9.108;2023-02-14T15:28:33;29.33;;;18.43;;
6791;SDS011;3433;48.730;9.108;2023-02-14T15:31:24;29.10;;;19.17;;
6791;SDS011;3433;48.730;9.108;2023-02-14T15:34:14;25.83;;;17.90;;
6791;SDS011;3433;48.730;9.108;2023-02-14T15:37:03;27.60;;;18.77;;
6791;SDS011;3433;48.730;9.108;2023-02-14T15:39:52;29.73;;;17.93;;
6791;SDS011;3433;48.730;9.108;2023-02-14T15:42:43;28.20;;;19.13;;
6791;SDS011;3433;48.730;9.108;2023-02-14T15:45:31;32.50;;;20.40;;
6791;SDS011;3433;48.730;9.108;2023-02-14T15:48:21;31.33;;;20.10;;
6791;SDS011;3433;48.730;9.108;2023-02-14T15:51:17;34.87;;;18.90;;
6791;SDS011;3433;48.730;9.108;2023-02-14T15:54:06;28.17;;;18.07;;
6791;SDS011;3433;48.730;9.108;2023-02-14T15:57:04;29.87;;;17.97;;
6791;SDS011;3433;48.730;9.108;2023-02-14T15:59:54;29.27;;;18.10;;
6791;SDS011;3433;48.730;9.108;2023-02-14T16:02:41;32.53;;;20.10;;
6791;SDS011;3433;48.730;9.108;2023-02-14T16:05:32;33.57;;;18.37;;
6791;SDS011;3433;48.730;9.108;2023-02-14T16:08:24;35.10;;;18.53;;
6791;SDS011;3433;48.730;9.108;2023-02-14T16:11:25;34.10;;;19.60;;
6791;SDS011;3433;48.730;9.108;2023-02-14T16:14:26;30.60;;;19.57;;
6791;SDS011;3433;48.730;9.108;2023-02-14T16:17:22;30.70;;;18.83;;
6791;SDS011;3433;48.730;9.108;2023-02-14T16:20:37;35.80;;;19.47;;
6791;SDS011;3433;48.730;9.108;2023-02-14T16:23:27;31.03;;;19.60;;
6791;SDS011;3433;48.730;9.108;2023-02-14T16:26:15;28.10;;;17.73;;
6791;SDS011;3433;48.730;9.108;2023-02-14T16:29:03;31.60;;;19.20;;
6791;SDS011;3433;48.730;9.108;2023-02-14T16:31:52;31.80;;;19.77;;
6791;SDS011;3433;48.730;9.108;2023-02-14T16:34:41;30.90;;;18.97;;
6791;SDS011;3433;48.730;9.108;2023-02-14T16:37:31;29.63;;;18.47;;
6791;SDS011;3433;48.730;9.108;2023-02-14T16:40:20;29.43;;;17.70;;
6791;SDS011;3433;48.730;9.108;2023-02-14T16:43:12;30.40;;;18.10;;
6791;SDS011;3433;48.730;9.108;2023-02-14T16:46:00;29.50;;;18.67;;
6791;SDS011;3433;48.730;9.108;2023-02-14T16:48:47;31.70;;;18.17;;
6791;SDS011;3433;48.730;9.108;2023-02-14T16:51:38;30.23;;;18.53;;
6791;SDS011;3433;48.730;9.108;2023-02-14T16:54:28;32.10;;;19.10;;
6791;SDS011;3433;48.730;9.108;2023-02-14T16:57:17;38.23;;;18.67;;
6791;SDS011;3433;48.730;9.108;2023-02-14T17:00:06;33.13;;;19.73;;
6791;SDS011;3433;48.730;9.108;2023-02-14T17:02:56;34.03;;;19.13;;
6791;SDS011;3433;48.730;9.108;2023-02-14T17:05:50;33.50;;;19.77;;
6791;SDS011;3433;48.730;9.108;2023-02-14T17:08:39;33.97;;;20.90;;
6791;SDS011;3433;48.730;9.108;2023-02-14T17:11:27;31.80;;;17.67;;
6791;SDS011;3433;48.730;9.108;2023-02-14T17:14:18;26.73;;;16.57;;
6791;SDS011;3433;48.730;9.108;2023-02-14T17:17:09;26.77;;;16.30;;
6791;SDS011;3433;48.730;9.108;2023-02-14T17:19:57;24.20;;;14.50;;
6791;SDS011;3433;48.730;9.108;2023-02-14T17:22:44;26.27;;;14.73;;
6791;SDS011;3433;48.730;9.108;2023-02-14T17:25:33;20.40;;;14.00;;
6791;SDS011;3433;48.730;9.108;2023-02-14T17:28:21;22.23;;;14.10;;
6791;SDS011;3433;48.730;9.108;2023-02-14T17:31:09;24.20;;;15.07;;
6791;SDS011;3433;48.730;9.108;2023-02-14T17:33:57;20.40;;;12.10;;
6791;SDS011;3433;48.730;9.108;2023-02-14T17:36:44;22.43;;;13.63;;
6791;SDS011;3433;48.730;9.108;2023-02-14T17:39:31;20.73;;;13.27;;
6791;SDS011;3433;48.730;9.108;2023-02-14T17:42:20;23.67;;;13.97;;
6791;SDS011;3433;48.730;9.108;2023-02-14T17:45:07;29.90;;;16.10;;
6791;SDS011;3433;48.730;9.108;2023-02-14T17:47:56;29.10;;;16.97;;
6791;SDS011;3433;48.730;9.108;2023-02-14T17:50:43;31.33;;;16.67;;